Time;durP1;ratioP1;P1;durP2;ratioP2;P2;SDS_P1;SDS_P2;PMS_P1;PMS_P2;Temp;Humidity;BMP_temperature;BMP_pressure;BME280_temperature;BME280_humidity;BME280_pressure;Samples;Min_cycle;Max_cycle;Signal;HPM_P1;HPM_P2
2023/07/07 00:01:02;;;;;;;3.17;2.87;;;14.10;96.60;;;;;;5010725;28;20482;-67
2023/07/07 00:03:28;;;;;;;3.10;2.80;;;14.00;96.70;;;;;;5012056;28;20474;-67
2023/07/07 00:05:55;;;;;;;3.20;2.93;;;14.00;96.80;;;;;;5014062;28;20457;-67
2023/07/07 00:08:22;;;;;;;3.20;2.87;;;14.00;96.90;;;;;;5014523;28;20452;-68
2023/07/07 00:10:51;;;;;;;3.13;2.90;;;14.00;96.90;;;;;;5014341;28;20458;-67
2023/07/07 00:13:18;;;;;;;3.47;3.13;;;14.00;97.30;;;;;;5014360;28;20484;-67
2023/07/07 00:15:45;;;;;;;2.87;2.67;;;13.90;97.00;;;;;;5013993;28;20458;-67
2023/07/07 00:18:13;;;;;;;4.50;3.10;;;13.90;97.10;;;;;;5013595;28;20488;-68
2023/07/07 00:20:39;;;;;;;2.90;2.57;;;13.90;97.10;;;;;;5013997;28;20577;-67
2023/07/07 00:23:06;;;;;;;3.10;2.90;;;13.80;97.10;;;;;;5014100;28;20475;-67
2023/07/07 00:25:33;;;;;;;5.83;2.93;;;13.80;97.20;;;;;;5014014;28;20969;-67
2023/07/07 00:28:01;;;;;;;3.13;2.93;;;13.70;97.20;;;;;;5013818;28;20456;-67
2023/07/07 00:30:28;;;;;;;3.47;2.60;;;13.70;97.50;;;;;;5014168;28;20536;-67
2023/07/07 00:32:55;;;;;;;3.10;2.90;;;13.70;97.60;;;;;;5014145;28;20454;-67
2023/07/07 00:35:22;;;;;;;3.00;2.80;;;13.70;97.60;;;;;;5013974;28;20838;-67
2023/07/07 00:37:48;;;;;;;3.50;3.20;;;13.60;97.60;;;;;;5013553;28;20454;-67
2023/07/07 00:40:15;;;;;;;3.33;3.07;;;13.60;97.90;;;;;;5013711;28;21010;-67
2023/07/07 00:42:42;;;;;;;4.63;3.97;;;13.60;97.90;;;;;;5013595;28;20456;-67
2023/07/07 00:45:19;;;;;;;3.60;3.30;;;13.60;97.90;;;;;;5013879;28;20481;-67
2023/07/07 00:47:53;;;;;;;3.37;2.37;;;13.50;97.90;;;;;;5013612;28;20536;-67
2023/07/07 00:50:24;;;;;;;3.73;3.43;;;13.50;97.90;;;;;;5013806;28;20449;-67
2023/07/07 00:52:51;;;;;;;3.13;2.93;;;13.50;98.00;;;;;;5013720;28;20427;-67
2023/07/07 00:55:21;;;;;;;3.13;2.93;;;13.50;98.10;;;;;;5013392;28;20476;-68
2023/07/07 00:57:49;;;;;;;3.30;2.87;;;13.40;98.10;;;;;;5013493;28;20454;-67
2023/07/07 01:00:17;;;;;;;3.40;3.20;;;13.40;98.10;;;;;;5013538;28;20496;-67
2023/07/07 01:02:53;;;;;;;2.83;2.63;;;13.40;98.20;;;;;;5013574;28;20450;-67
2023/07/07 01:05:22;;;;;;;3.40;3.10;;;13.40;98.20;;;;;;5013386;28;20469;-67
2023/07/07 01:07:51;;;;;;;3.60;3.23;;;13.30;98.20;;;;;;5012903;28;20457;-67
2023/07/07 01:10:19;;;;;;;3.30;2.90;;;13.30;98.40;;;;;;5013473;28;20549;-67
2023/07/07 01:12:47;;;;;;;3.57;3.10;;;13.30;98.50;;;;;;5013370;28;20881;-67
2023/07/07 01:15:14;;;;;;;3.07;2.87;;;13.20;98.50;;;;;;5013145;28;21051;-67
2023/07/07 01:18:04;;;;;;;2.53;2.43;;;13.20;98.60;;;;;;5012504;28;20528;-65
2023/07/07 01:20:37;;;;;;;3.20;3.00;;;13.20;98.60;;;;;;5013230;28;20504;-67
2023/07/07 01:23:39;;;;;;;3.20;3.00;;;13.10;98.70;;;;;;5013095;28;20466;-67
2023/07/07 01:26:26;;;;;;;3.93;3.63;;;13.10;98.70;;;;;;5012571;28;20449;-66
2023/07/07 01:29:14;;;;;;;2.90;2.50;;;13.10;98.90;;;;;;5012927;28;20450;-67
2023/07/07 01:31:45;;;;;;;2.70;2.50;;;13.10;99.00;;;;;;5012822;28;20485;-67
2023/07/07 01:34:15;;;;;;;3.20;2.90;;;13.00;99.20;;;;;;5012636;28;20470;-67
2023/07/07 01:36:43;;;;;;;2.90;2.70;;;13.10;99.20;;;;;;5012334;28;20832;-67
2023/07/07 01:39:11;;;;;;;2.83;2.60;;;12.90;99.10;;;;;;5012752;28;20493;-66
2023/07/07 01:41:44;;;;;;;2.87;2.67;;;12.90;99.10;;;;;;5012716;28;20482;-66
2023/07/07 01:44:18;;;;;;;3.67;3.37;;;12.90;99.20;;;;;;5012280;28;20481;-67
2023/07/07 01:46:53;;;;;;;3.43;3.10;;;12.90;99.20;;;;;;5012360;28;20454;-67
2023/07/07 01:49:22;;;;;;;3.23;3.03;;;12.90;99.30;;;;;;5012799;28;20453;-66
2023/07/07 01:52:00;;;;;;;2.80;2.60;;;12.80;99.20;;;;;;5012629;28;20483;-68
2023/07/07 01:54:31;;;;;;;3.40;3.10;;;12.80;99.30;;;;;;5012596;28;20469;-66
2023/07/07 01:56:59;;;;;;;4.33;3.73;;;12.80;99.20;;;;;;5012164;28;20449;-67
2023/07/07 01:59:27;;;;;;;3.93;2.97;;;12.80;99.30;;;;;;5012217;28;20450;-65
2023/07/07 02:01:55;;;;;;;3.13;2.93;;;12.70;99.20;;;;;;5012243;28;20960;-66
2023/07/07 02:04:23;;;;;;;2.77;2.57;;;12.70;99.30;;;;;;5012420;28;20502;-67
2023/07/07 02:06:50;;;;;;;3.17;2.90;;;12.70;99.40;;;;;;5011876;28;20453;-67
2023/07/07 02:09:16;;;;;;;3.37;3.10;;;12.60;99.30;;;;;;5012246;28;21062;-65
2023/07/07 02:11:43;;;;;;;4.30;2.90;;;12.60;99.30;;;;;;5012072;28;20416;-66
2023/07/07 02:14:10;;;;;;;3.50;3.20;;;12.60;99.30;;;;;;5012003;28;20844;-66
2023/07/07 02:16:37;;;;;;;3.20;2.73;;;12.60;99.70;;;;;;5011715;28;20446;-66
2023/07/07 02:19:05;;;;;;;3.40;3.10;;;12.50;99.40;;;;;;5011825;28;20899;-66
2023/07/07 02:21:32;;;;;;;5.27;3.33;;;12.50;99.50;;;;;;5011904;28;20518;-66
2023/07/07 02:23:59;;;;;;;2.90;2.70;;;12.50;99.50;;;;;;5011686;28;20525;-66
2023/07/07 02:26:26;;;;;;;4.40;3.10;;;12.50;99.50;;;;;;5011488;28;20817;-66
2023/07/07 02:28:53;;;;;;;4.60;4.07;;;12.50;99.60;;;;;;5011990;28;20951;-66
2023/07/07 02:31:24;;;;;;;3.50;3.20;;;12.40;99.60;;;;;;5011972;28;20542;-66
2023/07/07 02:33:51;;;;;;;3.20;2.90;;;12.40;99.60;;;;;;5011700;28;20492;-67
2023/07/07 02:36:19;;;;;;;2.73;2.60;;;12.40;99.60;;;;;;5011596;28;20545;-66
2023/07/07 02:38:46;;;;;;;3.53;3.33;;;12.40;99.60;;;;;;5011778;28;20458;-66
2023/07/07 02:41:13;;;;;;;2.70;2.50;;;12.40;99.70;;;;;;5014118;28;20901;-66
2023/07/07 02:43:41;;;;;;;3.40;3.20;;;12.30;99.70;;;;;;5021454;28;20469;-67
2023/07/07 02:46:08;;;;;;;3.23;2.93;;;12.30;99.70;;;;;;5020665;28;20911;-66
2023/07/07 02:48:35;;;;;;;2.70;2.50;;;12.30;99.70;;;;;;5028919;28;20467;-67
2023/07/07 02:51:04;;;;;;;2.67;2.47;;;12.20;99.80;;;;;;5031259;28;20763;-66
2023/07/07 02:53:34;;;;;;;3.33;3.03;;;12.20;99.90;;;;;;5031190;28;20465;-67
2023/07/07 02:56:01;;;;;;;3.53;3.33;;;12.20;99.90;;;;;;5031085;28;20538;-67
2023/07/07 02:58:28;;;;;;;2.87;2.67;;;12.10;99.90;;;;;;5031212;28;20543;-66
2023/07/07 03:01:10;;;;;;;3.83;3.60;;;12.10;99.90;;;;;;5031145;28;20485;-66
2023/07/07 03:03:38;;;;;;;3.03;2.83;;;12.10;99.90;;;;;;5031031;28;20518;-66
2023/07/07 03:06:07;;;;;;;3.03;2.83;;;12.10;99.90;;;;;;5030918;28;20452;-66
2023/07/07 03:08:35;;;;;;;3.20;3.00;;;12.10;99.90;;;;;;5031298;28;20455;-66
2023/07/07 03:11:05;;;;;;;2.60;2.40;;;12.00;99.90;;;;;;5031245;28;20971;-65
2023/07/07 03:13:32;;;;;;;4.90;3.60;;;12.00;99.90;;;;;;5030939;28;20471;-66
2023/07/07 03:15:59;;;;;;;3.43;3.17;;;12.00;99.90;;;;;;5030461;28;20456;-66
2023/07/07 03:18:26;;;;;;;3.37;3.07;;;12.00;99.90;;;;;;5030740;28;20543;-66
2023/07/07 03:20:52;;;;;;;3.53;3.17;;;11.90;99.90;;;;;;5029810;28;20487;-66
2023/07/07 03:23:19;;;;;;;3.77;3.57;;;11.90;99.90;;;;;;5030788;28;20848;-67
2023/07/07 03:25:48;;;;;;;4.63;4.33;;;11.90;99.90;;;;;;5030696;28;20459;-66
2023/07/07 03:28:14;;;;;;;3.90;2.87;;;11.90;99.90;;;;;;5030863;28;20453;-66
2023/07/07 03:30:41;;;;;;;2.57;2.47;;;11.90;99.90;;;;;;5031083;28;20555;-66
2023/07/07 03:33:08;;;;;;;4.03;3.70;;;11.90;99.90;;;;;;5030488;28;20456;-66
2023/07/07 03:35:35;;;;;;;3.40;3.10;;;11.90;99.90;;;;;;5030855;28;20894;-66
2023/07/07 03:38:02;;;;;;;3.33;3.13;;;11.80;99.90;;;;;;5031373;28;20540;-66
2023/07/07 03:40:29;;;;;;;4.27;3.97;;;11.80;99.90;;;;;;5034322;28;20483;-66
2023/07/07 03:42:57;;;;;;;3.20;3.00;;;11.80;99.90;;;;;;5034642;28;20898;-66
2023/07/07 03:45:23;;;;;;;4.33;3.83;;;11.80;99.90;;;;;;5034377;28;20473;-66
2023/07/07 03:47:51;;;;;;;3.40;3.10;;;11.80;99.90;;;;;;5034256;28;20452;-66
2023/07/07 03:50:17;;;;;;;3.67;3.37;;;11.80;99.90;;;;;;5034424;28;20441;-66
2023/07/07 03:52:44;;;;;;;2.90;2.70;;;11.80;99.90;;;;;;5034441;28;20466;-66
2023/07/07 03:55:11;;;;;;;3.77;3.47;;;11.80;99.90;;;;;;5034283;28;20508;-66
2023/07/07 03:57:38;;;;;;;3.63;2.57;;;11.70;99.90;;;;;;5034048;28;20536;-66
2023/07/07 04:00:08;;;;;;;3.90;3.63;;;11.70;99.90;;;;;;5033943;28;20961;-66
2023/07/07 04:02:35;;;;;;;3.00;2.80;;;11.70;99.90;;;;;;5034234;28;21022;-66
2023/07/07 04:05:02;;;;;;;3.47;3.17;;;11.70;99.90;;;;;;5034188;28;20479;-66
2023/07/07 04:07:29;;;;;;;3.43;3.20;;;11.80;99.90;;;;;;5033913;28;20555;-65
2023/07/07 04:09:56;;;;;;;3.20;2.90;;;11.80;99.90;;;;;;5034093;28;20544;-66
2023/07/07 04:12:22;;;;;;;3.03;2.83;;;11.80;99.90;;;;;;5034347;28;20452;-66
2023/07/07 04:14:49;;;;;;;3.50;3.20;;;11.80;99.90;;;;;;5033380;28;21024;-66
2023/07/07 04:17:17;;;;;;;3.83;3.60;;;11.80;99.90;;;;;;5033935;28;20462;-67
2023/07/07 04:19:44;;;;;;;4.27;3.63;;;11.80;99.90;;;;;;5034014;28;20459;-66
2023/07/07 04:22:11;;;;;;;3.57;3.37;;;11.80;99.90;;;;;;5031891;28;20487;-65
2023/07/07 04:24:38;;;;;;;3.50;3.20;;;11.80;99.90;;;;;;4997710;28;20995;-66
2023/07/07 04:27:06;;;;;;;3.60;3.30;;;11.90;99.90;;;;;;4993975;28;20451;-66
2023/07/07 04:29:33;;;;;;;3.60;3.40;;;11.80;99.90;;;;;;4994088;28;20973;-66
2023/07/07 04:32:00;;;;;;;3.87;3.53;;;11.80;99.90;;;;;;4999291;28;20452;-66
2023/07/07 04:34:29;;;;;;;3.37;3.10;;;11.90;99.90;;;;;;5010661;28;20469;-66
2023/07/07 04:36:56;;;;;;;3.43;3.13;;;11.90;99.90;;;;;;4996878;28;20490;-66
2023/07/07 04:39:23;;;;;;;3.17;2.97;;;11.90;99.90;;;;;;4994163;28;20455;-66
2023/07/07 04:41:51;;;;;;;3.20;3.00;;;12.00;99.90;;;;;;4994057;28;20501;-66
2023/07/07 04:44:18;;;;;;;3.47;3.27;;;12.00;99.90;;;;;;4994286;28;20873;-66
2023/07/07 04:46:44;;;;;;;3.70;3.40;;;12.00;99.90;;;;;;4993862;28;20462;-66
2023/07/07 04:49:11;;;;;;;3.30;3.00;;;12.00;99.90;;;;;;4993954;28;20453;-67
2023/07/07 04:51:41;;;;;;;3.23;3.03;;;12.10;99.90;;;;;;4994111;28;20545;-66
2023/07/07 04:54:12;;;;;;;3.90;3.57;;;12.10;99.90;;;;;;4994208;28;20800;-66
2023/07/07 04:56:39;;;;;;;3.13;2.90;;;12.20;99.90;;;;;;4993618;28;20453;-66
2023/07/07 04:59:06;;;;;;;3.63;3.43;;;12.30;99.90;;;;;;4994146;28;21043;-66
2023/07/07 05:01:33;;;;;;;3.73;3.30;;;12.30;99.90;;;;;;4994041;28;20563;-66
2023/07/07 05:04:02;;;;;;;3.53;3.23;;;12.40;99.90;;;;;;4993948;28;20470;-65
2023/07/07 05:06:31;;;;;;;4.00;2.97;;;12.50;99.90;;;;;;4993551;28;20461;-66
2023/07/07 05:09:01;;;;;;;2.93;2.73;;;12.60;99.90;;;;;;4993675;28;20455;-67
2023/07/07 05:11:29;;;;;;;3.37;3.07;;;12.70;99.90;;;;;;4993908;28;20473;-66
2023/07/07 05:13:56;;;;;;;3.87;3.53;;;12.80;99.90;;;;;;4993763;28;20493;-66
2023/07/07 05:16:25;;;;;;;4.70;3.60;;;12.90;99.90;;;;;;4993174;28;20486;-67
2023/07/07 05:18:53;;;;;;;4.03;3.47;;;13.00;99.90;;;;;;4993599;28;20803;-66
2023/07/07 05:21:22;;;;;;;2.90;2.70;;;13.10;99.90;;;;;;4993438;28;20504;-67
2023/07/07 05:23:51;;;;;;;3.50;3.30;;;13.20;99.90;;;;;;4993533;28;20483;-66
2023/07/07 05:26:20;;;;;;;3.00;2.87;;;13.30;99.90;;;;;;4993012;28;20463;-67
2023/07/07 05:28:47;;;;;;;4.80;4.30;;;13.40;99.90;;;;;;4993362;28;20490;-66
2023/07/07 05:31:14;;;;;;;3.83;3.63;;;13.60;99.90;;;;;;4993362;28;20539;-66
2023/07/07 05:33:41;;;;;;;3.73;3.50;;;13.60;99.90;;;;;;4993236;28;20476;-66
2023/07/07 05:36:09;;;;;;;3.40;3.10;;;13.80;99.90;;;;;;4992852;28;20536;-66
2023/07/07 05:38:38;;;;;;;3.90;3.60;;;14.00;99.90;;;;;;4993154;28;20500;-67
2023/07/07 05:41:05;;;;;;;3.80;3.50;;;14.10;99.90;;;;;;4993264;28;20492;-67
2023/07/07 05:43:35;;;;;;;4.80;3.67;;;14.30;99.90;;;;;;4992521;28;20478;-66
2023/07/07 05:46:03;;;;;;;4.30;3.80;;;14.50;99.90;;;;;;4992789;28;20457;-66
2023/07/07 05:48:30;;;;;;;3.43;3.23;;;14.60;99.90;;;;;;4992985;28;20453;-66
2023/07/07 05:51:00;;;;;;;4.43;4.00;;;14.90;99.90;;;;;;4993170;28;20450;-66
2023/07/07 05:53:28;;;;;;;5.27;3.80;;;15.10;99.90;;;;;;4993012;28;20469;-66
2023/07/07 05:55:59;;;;;;;3.30;3.00;;;15.30;99.90;;;;;;4992732;28;20534;-67
2023/07/07 05:58:26;;;;;;;3.50;3.20;;;15.50;99.90;;;;;;4992255;28;20452;-67
2023/07/07 06:00:54;;;;;;;4.00;3.57;;;15.70;99.90;;;;;;4991935;28;20950;-67
2023/07/07 06:03:21;;;;;;;3.67;3.37;;;15.90;99.90;;;;;;4992807;28;20441;-67
2023/07/07 06:05:47;;;;;;;3.33;3.13;;;16.20;99.90;;;;;;4992442;28;20480;-67
2023/07/07 06:08:14;;;;;;;3.67;3.40;;;16.40;99.90;;;;;;4992450;28;20453;-67
2023/07/07 06:10:41;;;;;;;2.73;2.53;;;16.60;99.90;;;;;;4992573;28;20538;-67
2023/07/07 06:13:08;;;;;;;3.50;3.20;;;16.80;99.90;;;;;;4992591;28;20450;-66
2023/07/07 06:15:35;;;;;;;3.63;3.33;;;17.00;99.90;;;;;;4992224;28;20461;-67
2023/07/07 06:18:03;;;;;;;3.20;2.90;;;17.20;99.90;;;;;;4992193;28;20455;-67
2023/07/07 06:20:30;;;;;;;3.63;3.43;;;17.40;99.90;;;;;;4992303;28;20464;-66
2023/07/07 06:22:57;;;;;;;3.30;3.00;;;17.60;99.90;;;;;;4992449;28;20508;-67
2023/07/07 06:25:24;;;;;;;3.00;2.80;;;17.70;99.60;;;;;;4991964;28;20513;-67
2023/07/07 06:27:51;;;;;;;3.20;3.00;;;17.90;99.70;;;;;;4992096;28;20505;-67
2023/07/07 06:30:18;;;;;;;3.77;3.47;;;18.10;98.50;;;;;;4992115;28;20541;-67
2023/07/07 06:32:45;;;;;;;3.23;3.03;;;18.30;98.10;;;;;;4992239;28;20455;-66
2023/07/07 06:35:14;;;;;;;3.40;3.20;;;18.50;97.10;;;;;;4991670;28;21078;-68
2023/07/07 06:37:40;;;;;;;3.10;2.90;;;18.60;96.60;;;;;;4991978;28;20462;-67
2023/07/07 06:40:08;;;;;;;2.60;2.40;;;18.80;96.70;;;;;;4992212;28;20512;-67
2023/07/07 06:42:35;;;;;;;3.07;2.77;;;18.90;96.10;;;;;;4991903;28;20577;-67
2023/07/07 06:45:02;;;;;;;3.87;3.47;;;19.10;95.50;;;;;;4992017;28;20878;-67
2023/07/07 06:47:29;;;;;;;3.70;3.40;;;19.30;94.80;;;;;;5018356;23;20494;-66
2023/07/07 06:49:56;;;;;;;4.03;3.47;;;19.50;94.30;;;;;;5031250;28;20456;-66
2023/07/07 06:52:24;;;;;;;3.17;2.97;;;19.60;93.60;;;;;;5028385;28;20465;-66
2023/07/07 06:54:51;;;;;;;4.70;2.80;;;19.90;93.10;;;;;;5031050;28;20450;-66
2023/07/07 06:57:18;;;;;;;3.57;3.27;;;20.10;92.30;;;;;;5029296;28;20470;-66
2023/07/07 06:59:44;;;;;;;6.27;2.80;;;20.30;91.80;;;;;;5010089;28;21234;-67
2023/07/07 07:02:13;;;;;;;4.60;3.60;;;20.40;90.70;;;;;;5024891;28;20498;-67
2023/07/07 07:04:40;;;;;;;2.90;2.70;;;20.70;91.20;;;;;;5025658;28;20461;-66
2023/07/07 07:07:08;;;;;;;4.03;3.63;;;20.90;90.20;;;;;;5025017;28;20460;-67
2023/07/07 07:09:37;;;;;;;3.50;3.30;;;21.10;88.30;;;;;;5016134;28;20888;-68
2023/07/07 07:12:04;;;;;;;3.33;3.03;;;21.30;88.20;;;;;;5030112;28;21001;-68
2023/07/07 07:14:31;;;;;;;3.10;2.70;;;21.50;87.80;;;;;;5023069;28;20456;-66
2023/07/07 07:16:58;;;;;;;3.47;3.27;;;21.70;86.90;;;;;;5028111;28;20492;-67
2023/07/07 07:19:25;;;;;;;3.30;2.63;;;21.90;86.20;;;;;;5018699;28;20546;-66
2023/07/07 07:21:51;;;;;;;3.60;3.30;;;22.10;83.90;;;;;;5026467;28;20972;-67
2023/07/07 07:24:19;;;;;;;4.47;2.97;;;22.40;84.10;;;;;;5026100;28;20559;-68
2023/07/07 07:26:47;;;;;;;3.93;3.37;;;22.60;85.10;;;;;;5028109;28;20454;-66
2023/07/07 07:29:14;;;;;;;3.00;2.80;;;22.80;83.70;;;;;;5029814;28;20460;-67
2023/07/07 07:31:41;;;;;;;4.80;2.60;;;23.00;81.30;;;;;;5027092;28;20505;-67
2023/07/07 07:34:23;;;;;;;3.10;2.90;;;23.10;82.20;;;;;;5024352;28;20494;-67
2023/07/07 07:36:50;;;;;;;3.50;2.97;;;23.40;83.90;;;;;;5023174;28;20529;-67
2023/07/07 07:39:18;;;;;;;7.00;4.07;;;23.60;80.00;;;;;;5026483;28;20449;-67
2023/07/07 07:41:48;;;;;;;3.80;3.50;;;23.70;76.40;;;;;;5025434;28;20490;-67
2023/07/07 07:44:16;;;;;;;2.60;2.50;;;23.90;78.80;;;;;;5029254;28;20459;-67
2023/07/07 07:46:44;;;;;;;3.17;2.97;;;24.10;78.60;;;;;;5030542;28;20451;-67
2023/07/07 07:49:11;;;;;;;3.60;3.30;;;24.20;76.30;;;;;;5023254;28;20524;-66
2023/07/07 07:51:39;;;;;;;3.20;2.90;;;24.40;73.30;;;;;;5029260;28;20448;-67
2023/07/07 07:54:07;;;;;;;3.50;3.20;;;24.50;76.00;;;;;;5023935;28;20482;-67
2023/07/07 07:56:35;;;;;;;3.80;3.50;;;24.70;72.60;;;;;;5018879;28;20462;-67
2023/07/07 07:59:04;;;;;;;3.30;3.10;;;24.90;72.30;;;;;;5023998;28;20483;-67
2023/07/07 08:01:31;;;;;;;3.30;3.00;;;25.10;73.60;;;;;;5026659;28;20451;-67
2023/07/07 08:03:58;;;;;;;3.50;3.30;;;25.20;72.70;;;;;;5028162;28;20527;-67
2023/07/07 08:06:24;;;;;;;3.50;2.90;;;25.40;72.30;;;;;;5025212;28;20492;-67
2023/07/07 08:08:51;;;;;;;3.40;3.00;;;25.60;69.80;;;;;;5020063;28;20487;-67
2023/07/07 08:11:20;;;;;;;3.43;3.20;;;25.70;71.30;;;;;;5031250;28;20454;-67
2023/07/07 08:13:47;;;;;;;3.20;2.93;;;25.80;70.30;;;;;;5028202;28;20475;-67
2023/07/07 08:16:15;;;;;;;3.93;3.40;;;25.90;70.90;;;;;;5030971;28;20455;-67
2023/07/07 08:18:42;;;;;;;2.93;2.73;;;26.10;70.10;;;;;;5026851;28;20487;-67
2023/07/07 08:21:09;;;;;;;3.90;3.70;;;26.20;67.50;;;;;;5031492;28;20887;-67
2023/07/07 08:23:36;;;;;;;3.00;2.80;;;26.40;69.10;;;;;;5022698;28;20490;-67
2023/07/07 08:26:03;;;;;;;3.50;2.87;;;26.50;64.50;;;;;;5031284;28;20459;-67
2023/07/07 08:28:30;;;;;;;3.40;3.20;;;26.70;66.30;;;;;;5024655;28;20473;-67
2023/07/07 08:30:56;;;;;;;3.40;3.10;;;26.80;68.60;;;;;;5027309;28;20646;-67
2023/07/07 08:33:25;;;;;;;3.50;3.27;;;26.90;67.40;;;;;;5024377;28;21035;-67
2023/07/07 08:35:51;;;;;;;4.33;2.87;;;27.00;62.80;;;;;;5028059;28;20550;-67
2023/07/07 08:38:18;;;;;;;4.23;3.93;;;27.00;64.40;;;;;;5032759;28;20513;-67
2023/07/07 08:40:50;;;;;;;2.70;2.50;;;27.10;64.40;;;;;;5030806;28;20546;-67
2023/07/07 08:43:17;;;;;;;5.13;3.30;;;27.20;65.70;;;;;;5032944;28;20487;-68
2023/07/07 08:45:52;;;;;;;5.77;3.93;;;27.40;61.20;;;;;;5021871;28;20559;-67
2023/07/07 08:48:34;;;;;;;3.53;3.30;;;27.40;59.90;;;;;;5012977;28;20495;-67
2023/07/07 08:51:06;;;;;;;5.43;3.57;;;27.50;61.20;;;;;;5017609;28;20441;-67
2023/07/07 08:53:47;;;;;;;4.70;4.30;;;27.60;59.70;;;;;;5032931;28;20451;-67
2023/07/07 08:56:21;;;;;;;3.80;3.50;;;27.70;59.40;;;;;;5018129;28;20486;-67
2023/07/07 08:58:59;;;;;;;4.90;3.40;;;27.80;61.40;;;;;;5013030;28;20487;-67
2023/07/07 09:01:40;;;;;;;3.83;3.43;;;28.00;61.50;;;;;;5013067;28;20543;-67
2023/07/07 09:04:22;;;;;;;3.87;3.57;;;28.10;59.10;;;;;;5012881;28;20446;-67
2023/07/07 09:07:03;;;;;;;3.63;3.40;;;28.30;58.70;;;;;;5023582;28;20815;-67
2023/07/07 09:09:51;;;;;;;3.80;3.50;;;28.40;57.70;;;;;;5032497;28;20536;-68
2023/07/07 09:12:26;;;;;;;4.17;3.47;;;28.50;56.20;;;;;;4992992;28;20533;-67
2023/07/07 09:14:56;;;;;;;5.57;3.80;;;28.60;57.10;;;;;;4995347;28;20542;-68
2023/07/07 09:17:28;;;;;;;5.10;4.00;;;28.80;56.60;;;;;;5012297;28;20476;-69
2023/07/07 09:20:00;;;;;;;3.80;3.50;;;28.90;55.40;;;;;;5012394;28;20527;-69
2023/07/07 09:22:31;;;;;;;4.67;4.23;;;29.00;54.40;;;;;;5011536;28;20489;-69
2023/07/07 09:25:04;;;;;;;4.43;3.80;;;29.20;54.70;;;;;;5021791;28;20819;-68
2023/07/07 09:27:38;;;;;;;4.10;3.83;;;29.30;53.10;;;;;;5020107;28;21008;-69
2023/07/07 09:30:15;;;;;;;4.23;3.93;;;29.30;53.70;;;;;;5028962;28;20502;-69
2023/07/07 09:32:42;;;;;;;5.33;3.53;;;29.40;54.70;;;;;;5010900;28;21188;-68
2023/07/07 09:35:13;;;;;;;4.30;3.90;;;29.50;53.40;;;;;;5020549;28;20537;-67
2023/07/07 09:37:50;;;;;;;5.13;4.00;;;29.50;54.70;;;;;;5028846;28;20478;-68
2023/07/07 09:40:21;;;;;;;4.67;4.33;;;29.60;55.00;;;;;;5027456;28;20447;-68
2023/07/07 09:42:57;;;;;;;4.27;3.93;;;29.70;54.20;;;;;;5011424;28;20569;-68
2023/07/07 09:45:35;;;;;;;4.47;3.80;;;29.80;53.90;;;;;;5011852;28;20824;-66
2023/07/07 09:48:10;;;;;;;4.17;3.80;;;29.90;52.70;;;;;;5011205;28;20484;-67
2023/07/07 09:50:48;;;;;;;3.87;3.67;;;30.00;52.00;;;;;;5012005;28;20444;-69
2023/07/07 09:53:20;;;;;;;4.60;4.03;;;30.10;53.00;;;;;;5031209;28;20452;-68
2023/07/07 09:55:47;;;;;;;4.80;4.40;;;30.00;52.50;;;;;;5023642;28;20442;-67
2023/07/07 09:58:18;;;;;;;5.90;5.33;;;29.90;51.10;;;;;;5010156;28;20477;-68
2023/07/07 10:00:49;;;;;;;4.70;4.40;;;30.00;50.80;;;;;;5011105;28;20449;-68
2023/07/07 10:03:22;;;;;;;4.70;4.30;;;29.90;51.20;;;;;;5011330;28;20516;-68
2023/07/07 10:05:53;;;;;;;4.90;4.50;;;30.00;51.80;;;;;;5011083;28;20456;-67
2023/07/07 10:08:20;;;;;;;6.23;5.23;;;30.00;52.30;;;;;;5010965;28;20560;-69
2023/07/07 10:10:47;;;;;;;5.10;4.50;;;30.00;51.20;;;;;;5010854;28;20786;-68
2023/07/07 10:13:14;;;;;;;5.77;5.17;;;30.00;51.00;;;;;;5010935;28;20541;-70
2023/07/07 10:15:49;;;;;;;5.43;4.93;;;29.80;48.60;;;;;;5010875;28;20453;-67
2023/07/07 10:18:21;;;;;;;5.30;4.80;;;29.70;50.60;;;;;;5010555;28;20470;-69
2023/07/07 10:20:50;;;;;;;5.17;4.67;;;29.60;50.20;;;;;;5010665;28;20442;-67
2023/07/07 10:23:17;;;;;;;4.57;4.13;;;29.60;51.00;;;;;;5010611;28;20478;-67
2023/07/07 10:25:46;;;;;;;6.43;5.93;;;29.50;51.70;;;;;;5017943;28;20454;-68
2023/07/07 10:28:15;;;;;;;4.27;3.90;;;29.50;51.60;;;;;;5029964;28;21088;-67
2023/07/07 10:30:43;;;;;;;7.37;5.67;;;29.60;51.30;;;;;;5026264;28;20942;-68
2023/07/07 10:33:12;;;;;;;4.67;4.27;;;29.50;50.00;;;;;;5011261;28;20542;-68
2023/07/07 10:35:40;;;;;;;5.40;5.00;;;29.60;51.20;;;;;;5010918;28;20474;-68
2023/07/07 10:38:10;;;;;;;6.60;6.00;;;29.60;50.10;;;;;;5010566;28;20475;-68
2023/07/07 10:40:38;;;;;;;6.67;6.17;;;29.60;47.40;;;;;;5011132;28;20928;-68
2023/07/07 10:43:06;;;;;;;5.00;4.60;;;29.60;47.20;;;;;;5010807;28;20569;-67
2023/07/07 10:45:33;;;;;;;7.63;5.63;;;29.60;46.90;;;;;;5010875;28;20446;-68
2023/07/07 10:48:00;;;;;;;4.90;4.60;;;29.60;47.30;;;;;;5010009;28;20481;-68
2023/07/07 10:50:33;;;;;;;5.60;5.20;;;29.60;48.10;;;;;;5010571;28;20540;-67
2023/07/07 10:53:18;;;;;;;5.23;4.73;;;29.50;48.20;;;;;;5010909;28;20534;-68
2023/07/07 10:56:03;;;;;;;5.50;4.97;;;29.60;48.70;;;;;;5010841;28;20446;-68
2023/07/07 10:58:52;;;;;;;5.70;5.20;;;29.60;49.70;;;;;;5010539;28;20485;-67
2023/07/07 11:01:29;;;;;;;5.33;4.83;;;29.60;49.30;;;;;;5010457;28;20939;-67
2023/07/07 11:04:17;;;;;;;5.60;5.10;;;29.60;48.00;;;;;;5010692;28;20491;-68
2023/07/07 11:06:59;;;;;;;6.30;5.70;;;29.60;47.80;;;;;;5010207;28;21026;-68
2023/07/07 11:09:41;;;;;;;5.93;5.43;;;29.60;48.40;;;;;;5011139;28;20454;-68
2023/07/07 11:12:19;;;;;;;6.00;5.50;;;29.70;48.80;;;;;;5011142;28;20468;-69
2023/07/07 11:14:56;;;;;;;5.67;5.10;;;29.80;48.50;;;;;;5010941;28;20449;-67
2023/07/07 11:17:36;;;;;;;7.47;5.57;;;29.80;49.00;;;;;;5010522;28;20483;-68
2023/07/07 11:20:29;;;;;;;5.63;5.33;;;29.90;49.00;;;;;;5010899;28;20459;-68
2023/07/07 11:23:16;;;;;;;5.10;4.60;;;30.00;49.10;;;;;;5013611;28;20485;-68
2023/07/07 11:25:51;;;;;;;6.80;4.90;;;30.00;49.00;;;;;;5022909;28;20935;-68
2023/07/07 11:28:32;;;;;;;5.37;4.93;;;30.10;49.50;;;;;;5025524;28;20469;-69
2023/07/07 11:31:16;;;;;;;6.03;5.47;;;30.30;48.80;;;;;;4991380;28;20457;-68
2023/07/07 11:33:52;;;;;;;6.20;5.60;;;30.40;49.50;;;;;;4991475;28;20447;-68
2023/07/07 11:36:51;;;;;;;5.00;4.60;;;30.50;48.70;;;;;;5025246;28;20449;-69
2023/07/07 11:39:42;;;;;;;5.70;5.30;;;30.60;48.40;;;;;;4991143;28;20464;-68
2023/07/07 11:42:42;;;;;;;5.47;5.07;;;30.70;47.10;;;;;;4991172;28;20455;-68
2023/07/07 11:45:19;;;;;;;5.23;4.83;;;30.80;47.90;;;;;;4996889;28;20453;-68
2023/07/07 11:48:00;;;;;;;5.80;5.30;;;30.90;47.80;;;;;;5029667;28;20478;-68
2023/07/07 11:50:42;;;;;;;5.47;5.03;;;30.90;47.90;;;;;;5030245;28;20456;-69
2023/07/07 11:53:33;;;;;;;5.23;4.80;;;30.80;45.90;;;;;;5030571;28;20445;-68
2023/07/07 11:56:14;;;;;;;5.47;5.07;;;30.80;46.90;;;;;;5030255;28;20480;-69
2023/07/07 11:58:51;;;;;;;5.77;5.27;;;30.80;46.10;;;;;;5030496;28;20475;-68
2023/07/07 12:01:20;;;;;;;6.53;5.50;;;30.90;47.00;;;;;;5033993;28;21037;-70
2023/07/07 12:03:53;;;;;;;6.00;5.50;;;31.10;43.90;;;;;;5033947;28;20498;-68
2023/07/07 12:06:27;;;;;;;5.77;5.27;;;31.10;43.00;;;;;;5033634;28;20453;-69
2023/07/07 12:09:05;;;;;;;5.77;4.60;;;31.20;44.80;;;;;;5033730;28;20479;-70
2023/07/07 12:11:37;;;;;;;4.93;4.53;;;31.30;42.80;;;;;;5033785;28;20462;-70
2023/07/07 12:14:16;;;;;;;5.57;5.07;;;31.40;42.90;;;;;;5033660;28;20934;-70
2023/07/07 12:16:45;;;;;;;6.20;5.70;;;31.40;42.20;;;;;;5032112;28;20464;-69
2023/07/07 12:19:20;;;;;;;5.83;5.23;;;31.50;42.50;;;;;;5033355;28;20980;-69
2023/07/07 12:21:50;;;;;;;5.40;4.90;;;31.60;44.00;;;;;;5033645;28;20529;-69
2023/07/07 12:24:21;;;;;;;5.20;4.70;;;31.70;41.10;;;;;;5033394;28;20493;-69
2023/07/07 12:26:58;;;;;;;4.03;3.77;;;31.80;43.80;;;;;;5028282;28;20492;-69
2023/07/07 12:29:28;;;;;;;4.93;4.63;;;32.00;43.10;;;;;;5012469;28;20480;-70
2023/07/07 12:31:55;;;;;;;4.67;4.27;;;32.20;40.50;;;;;;5012012;28;20677;-69
2023/07/07 12:34:36;;;;;;;8.10;5.00;;;32.30;41.70;;;;;;5016187;28;21105;-70
2023/07/07 12:37:05;;;;;;;8.43;4.93;;;32.40;37.90;;;;;;5019789;28;20897;-68
2023/07/07 12:39:35;;;;;;;5.03;4.60;;;32.50;39.20;;;;;;5019496;28;20812;-70
2023/07/07 12:42:04;;;;;;;4.57;4.27;;;32.50;37.50;;;;;;5027680;28;20465;-71
2023/07/07 12:44:34;;;;;;;4.87;4.47;;;32.60;40.00;;;;;;5016605;28;20488;-71
2023/07/07 12:47:18;;;;;;;5.70;4.30;;;32.70;36.30;;;;;;5032383;28;20903;-70
2023/07/07 12:49:53;;;;;;;5.00;4.60;;;32.80;38.00;;;;;;5020687;28;20535;-70
2023/07/07 12:52:20;;;;;;;4.80;4.40;;;33.00;39.10;;;;;;5032948;28;20443;-70
2023/07/07 12:54:53;;;;;;;5.30;4.90;;;33.20;39.80;;;;;;5026142;28;20448;-69
2023/07/07 12:57:24;;;;;;;4.57;4.27;;;33.40;39.60;;;;;;5021077;28;20470;-70
2023/07/07 12:59:52;;;;;;;5.17;4.67;;;33.50;38.60;;;;;;5017599;28;20458;-70
2023/07/07 13:02:21;;;;;;;4.77;4.37;;;33.80;37.90;;;;;;5028401;28;20464;-70
2023/07/07 13:04:58;;;;;;;4.50;4.20;;;33.90;36.00;;;;;;5030090;28;20527;-70